createdAt,value
2019-05-13T00:00:27.150Z,2.50
2019-05-13T00:02:57.187Z,1.00
2019-05-13T00:05:27.180Z,0.90
2019-05-13T00:07:57.162Z,4.20
2019-05-13T00:10:27.148Z,0.97
2019-05-13T00:12:58.735Z,0.87
2019-05-13T00:15:30.316Z,0.70
2019-05-13T00:18:00.365Z,1.50
2019-05-13T00:20:30.359Z,3.13
2019-05-13T00:23:00.349Z,1.17
2019-05-13T00:25:30.401Z,1.80
2019-05-13T00:28:00.436Z,1.20
2019-05-13T00:30:30.438Z,3.70
2019-05-13T00:33:00.737Z,1.43
2019-05-13T00:35:30.794Z,1.37
2019-05-13T00:38:00.837Z,3.90
2019-05-13T00:40:30.842Z,0.90
2019-05-13T00:43:03.518Z,0.97
2019-05-13T00:45:33.936Z,1.27
2019-05-13T00:48:04.872Z,1.27
2019-05-13T00:50:35.091Z,1.03
2019-05-13T00:53:05.160Z,2.37
2019-05-13T00:55:35.194Z,1.77
2019-05-13T00:58:05.450Z,0.70
2019-05-13T01:00:35.459Z,3.40
2019-05-13T01:03:05.545Z,1.40
2019-05-13T01:05:35.569Z,1.20
2019-05-13T01:08:05.553Z,1.00
2019-05-13T01:10:35.586Z,1.33
2019-05-13T01:13:05.594Z,1.23
2019-05-13T01:15:35.651Z,2.10
2019-05-13T01:18:05.732Z,1.27
2019-05-13T01:20:35.722Z,3.70
2019-05-13T01:23:05.762Z,1.37
2019-05-13T01:25:35.741Z,1.73
2019-05-13T01:28:05.733Z,1.20
2019-05-13T01:30:35.807Z,2.00
2019-05-13T01:33:05.794Z,1.40
2019-05-13T01:35:35.862Z,1.33
2019-05-13T01:38:05.855Z,2.40
2019-05-13T01:40:35.983Z,1.00
2019-05-13T01:43:05.974Z,2.17
2019-05-13T01:45:36.005Z,1.63
2019-05-13T01:48:07.802Z,1.10
2019-05-13T01:50:37.701Z,1.77
2019-05-13T01:53:07.721Z,2.50
2019-05-13T01:55:37.765Z,1.07
2019-05-13T01:58:07.744Z,0.60
2019-05-13T02:00:38.830Z,1.20
2019-05-13T02:03:08.825Z,1.30
2019-05-13T02:05:38.877Z,1.07
2019-05-13T02:08:08.879Z,0.93
2019-05-13T02:10:57.953Z,1.00
2019-05-13T02:13:27.948Z,1.67
2019-05-13T02:15:58.591Z,1.20
2019-05-13T02:18:28.564Z,1.07
2019-05-13T02:20:58.553Z,2.10
2019-05-13T02:23:28.579Z,1.03
2019-05-13T02:25:59.668Z,1.67
2019-05-13T02:28:29.641Z,0.90
2019-05-13T02:30:59.636Z,1.10
2019-05-13T02:33:33.529Z,1.30
2019-05-13T02:36:02.992Z,2.87
2019-05-13T02:38:35.527Z,6.13
2019-05-13T02:41:04.882Z,3.03
2019-05-13T02:43:34.960Z,1.57
2019-05-13T02:46:05.032Z,2.47
2019-05-13T02:48:35.014Z,1.93
2019-05-13T02:51:05.096Z,0.90
2019-05-13T02:53:35.070Z,1.07
2019-05-13T02:56:05.281Z,2.13
2019-05-13T02:58:35.265Z,2.80
2019-05-13T03:01:05.506Z,1.10
2019-05-13T03:03:35.521Z,1.93
2019-05-13T03:06:05.761Z,2.30
2019-05-13T03:08:46.237Z,1.70
2019-05-13T03:11:12.350Z,2.17
2019-05-13T03:13:42.588Z,1.90
2019-05-13T03:16:22.908Z,1.23
2019-05-13T03:18:52.482Z,0.97
2019-05-13T03:21:23.377Z,0.63
2019-05-13T03:23:53.646Z,2.40
2019-05-13T03:26:24.759Z,1.13
2019-05-13T03:28:54.797Z,1.13
2019-05-13T03:31:26.369Z,0.97
2019-05-13T03:33:56.901Z,0.97
2019-05-13T03:36:27.131Z,2.37
2019-05-13T03:39:06.008Z,0.70
2019-05-13T03:41:32.954Z,0.70
2019-05-13T03:44:06.231Z,2.10
2019-05-13T03:46:42.560Z,1.13
2019-05-13T03:49:13.667Z,1.10
2019-05-13T03:51:43.870Z,1.73
2019-05-13T03:54:15.125Z,1.67
2019-05-13T03:56:45.340Z,2.27
2019-05-13T03:59:15.331Z,1.13
2019-05-13T04:01:45.591Z,2.63
2019-05-13T04:04:15.645Z,1.10
2019-05-13T04:06:45.828Z,2.20
2019-05-13T04:09:26.442Z,1.57
2019-05-13T04:11:47.573Z,4.20
2019-05-13T04:14:18.123Z,1.50
2019-05-13T04:16:52.867Z,1.00
2019-05-13T04:19:23.165Z,4.07
2019-05-13T04:21:53.649Z,2.87
2019-05-13T04:24:23.609Z,2.00
2019-05-13T04:26:53.708Z,1.43
2019-05-13T04:29:23.786Z,2.60
2019-05-13T04:31:53.989Z,1.33
2019-05-13T04:34:25.281Z,1.20
2019-05-13T04:36:55.450Z,1.27
2019-05-13T04:39:40.484Z,2.03
2019-05-13T04:41:57.621Z,1.37
2019-05-13T04:44:27.795Z,3.90
2019-05-13T04:46:58.843Z,1.37
2019-05-13T04:49:32.314Z,1.73
2019-05-13T04:52:03.325Z,2.23
2019-05-13T04:54:33.260Z,3.23
2019-05-13T04:57:03.698Z,0.80
2019-05-13T04:59:35.857Z,1.10
2019-05-13T05:02:22.307Z,1.50
2019-05-13T05:05:17.470Z,2.17
2019-05-13T05:08:12.068Z,1.73
2019-05-13T05:10:50.302Z,1.03
2019-05-13T05:13:32.353Z,1.90
2019-05-13T05:16:12.962Z,0.90
2019-05-13T05:19:23.780Z,0.93
2019-05-13T05:21:58.747Z,1.80
2019-05-13T05:24:51.889Z,2.10
2019-05-13T05:27:46.756Z,2.27
2019-05-13T05:30:43.982Z,0.90
2019-05-13T05:33:29.158Z,1.33
2019-05-13T05:36:24.875Z,1.33
2019-05-13T05:39:12.151Z,3.67
2019-05-13T05:41:43.504Z,1.97
2019-05-13T05:44:13.942Z,0.93
2019-05-13T05:46:44.902Z,1.60
2019-05-13T05:49:17.213Z,1.77
2019-05-13T05:51:51.292Z,2.90
2019-05-13T05:54:23.166Z,1.27
2019-05-13T05:56:55.003Z,2.13
2019-05-13T05:59:27.039Z,1.80
2019-05-13T06:01:58.392Z,1.40
2019-05-13T06:04:32.291Z,2.17
2019-05-13T06:07:03.294Z,1.57
2019-05-13T06:09:33.606Z,2.80
2019-05-13T06:12:03.641Z,1.17
2019-05-13T06:14:33.842Z,2.07
2019-05-13T06:17:03.891Z,2.27
2019-05-13T06:19:35.076Z,3.60
2019-05-13T06:22:05.390Z,1.47
2019-05-13T06:24:35.494Z,1.37
2019-05-13T06:27:05.473Z,2.17
2019-05-13T06:29:35.534Z,1.67
2019-05-13T06:32:17.602Z,1.90
2019-05-13T06:34:38.226Z,2.50
2019-05-13T06:37:08.548Z,2.50
2019-05-13T06:39:38.716Z,2.30
2019-05-13T06:42:08.709Z,1.03
2019-05-13T06:44:38.702Z,1.97
2019-05-13T06:47:11.325Z,1.17
2019-05-13T06:49:42.708Z,0.77
2019-05-13T06:52:12.180Z,1.97
2019-05-13T06:54:42.205Z,2.00
2019-05-13T06:57:13.408Z,0.63
2019-05-13T06:59:43.805Z,0.87
2019-05-13T07:02:13.913Z,0.63
2019-05-13T07:04:43.944Z,1.83
2019-05-13T07:07:17.121Z,1.33
2019-05-13T07:09:45.681Z,1.93
2019-05-13T07:12:15.673Z,0.63
2019-05-13T07:14:45.844Z,2.10
2019-05-13T07:17:15.834Z,1.17
2019-05-13T07:19:45.876Z,1.20
2019-05-13T07:22:15.864Z,1.17
2019-05-13T07:24:45.863Z,0.60
2019-05-13T07:27:15.867Z,3.20
2019-05-13T07:29:45.861Z,1.20
2019-05-13T07:32:15.838Z,1.77
2019-05-13T07:34:45.936Z,1.50
2019-05-13T07:37:16.003Z,2.57
2019-05-13T07:39:46.828Z,2.57
2019-05-13T07:42:16.832Z,1.70
2019-05-13T07:44:46.847Z,1.73
2019-05-13T07:47:16.884Z,0.80
2019-05-13T07:49:46.870Z,1.00
2019-05-13T07:52:16.913Z,1.23
2019-05-13T07:54:46.895Z,1.37
2019-05-13T07:57:16.906Z,1.13
2019-05-13T07:59:47.021Z,3.40
2019-05-13T08:02:17.064Z,0.70
2019-05-13T08:04:49.355Z,1.30
2019-05-13T08:07:18.715Z,1.13
2019-05-13T08:09:48.699Z,2.13
2019-05-13T08:12:18.710Z,0.93
2019-05-13T08:14:48.751Z,0.80
2019-05-13T08:17:18.747Z,1.50
2019-05-13T08:19:48.749Z,1.20
2019-05-13T08:22:21.837Z,2.37
2019-05-13T08:24:52.025Z,0.87
2019-05-13T08:27:30.394Z,0.53
2019-05-13T08:29:54.144Z,1.43
2019-05-13T08:32:24.135Z,1.53
2019-05-13T08:35:01.828Z,0.97
2019-05-13T08:37:25.899Z,1.23
2019-05-13T08:39:55.932Z,1.97
2019-05-13T08:42:25.923Z,3.40
2019-05-13T08:44:56.057Z,1.10
2019-05-13T08:47:26.297Z,0.77
2019-05-13T08:49:56.439Z,1.63
2019-05-13T08:52:26.484Z,1.73
2019-05-13T08:54:56.548Z,1.00
2019-05-13T08:57:26.536Z,1.10
2019-05-13T08:59:56.537Z,1.00
2019-05-13T09:02:26.577Z,2.30
2019-05-13T09:04:57.667Z,0.90
2019-05-13T09:07:27.669Z,2.30
2019-05-13T09:09:57.738Z,1.20
2019-05-13T09:12:32.583Z,1.20
2019-05-13T09:14:59.563Z,1.00
2019-05-13T09:17:31.769Z,2.30
2019-05-13T09:20:02.789Z,1.00
2019-05-13T09:22:33.121Z,1.30
2019-05-13T09:25:05.405Z,1.70
2019-05-13T09:27:35.327Z,1.63
2019-05-13T09:30:07.007Z,0.47
2019-05-13T09:32:37.004Z,1.23
2019-05-13T09:35:07.503Z,2.10
2019-05-13T09:37:39.390Z,1.20
2019-05-13T09:40:11.489Z,2.47
2019-05-13T09:42:49.160Z,2.20
2019-05-13T09:45:13.530Z,0.80
2019-05-13T09:47:43.544Z,1.30
2019-05-13T09:50:28.701Z,1.70
2019-05-13T09:52:45.541Z,1.00
2019-05-13T09:55:26.361Z,2.27
2019-05-13T09:58:06.790Z,2.20
2019-05-13T10:00:37.020Z,0.87
2019-05-13T10:03:07.103Z,1.77
2019-05-13T10:05:37.149Z,2.67
2019-05-13T10:08:07.151Z,0.77
2019-05-13T10:10:37.196Z,2.97
2019-05-13T10:13:12.300Z,1.07
2019-05-13T10:15:41.834Z,0.77
2019-05-13T10:18:12.540Z,0.80
2019-05-13T10:20:58.928Z,0.90
2019-05-13T10:23:32.695Z,1.53
2019-05-13T10:26:04.774Z,1.53
2019-05-13T10:28:35.408Z,2.00
2019-05-13T10:31:05.906Z,0.90
2019-05-13T10:33:36.077Z,0.73
2019-05-13T10:36:06.211Z,0.67
2019-05-13T10:38:36.367Z,0.93
2019-05-13T10:41:06.409Z,0.97
2019-05-13T10:43:40.254Z,3.53
2019-05-13T10:46:08.139Z,1.77
2019-05-13T10:48:38.130Z,1.63
2019-05-13T10:51:08.206Z,3.23
2019-05-13T10:53:38.260Z,1.00
2019-05-13T10:56:08.331Z,1.40
2019-05-13T10:58:38.341Z,1.20
2019-05-13T11:01:08.424Z,2.13
2019-05-13T11:03:38.411Z,0.67
2019-05-13T11:06:08.498Z,2.30
2019-05-13T11:08:38.555Z,2.03
2019-05-13T11:11:08.614Z,1.50
2019-05-13T11:13:52.321Z,1.70
2019-05-13T11:16:12.192Z,0.73
2019-05-13T11:18:42.447Z,2.33
2019-05-13T11:21:13.164Z,3.97
2019-05-13T11:23:43.227Z,0.70
2019-05-13T11:26:14.357Z,1.47
2019-05-13T11:28:44.346Z,1.33
2019-05-13T11:31:14.495Z,0.60
2019-05-13T11:33:44.558Z,1.00
2019-05-13T11:36:18.972Z,0.57
2019-05-13T11:38:46.398Z,0.93
2019-05-13T11:41:16.560Z,1.17
2019-05-13T11:43:46.562Z,0.73
2019-05-13T11:46:16.687Z,1.63
2019-05-13T11:48:46.756Z,1.20
2019-05-13T11:51:16.765Z,0.80
2019-05-13T11:53:46.780Z,1.20
2019-05-13T11:56:16.785Z,0.50
2019-05-13T11:58:46.818Z,2.20
2019-05-13T12:01:17.155Z,1.13
2019-05-13T12:03:47.181Z,0.90
2019-05-13T12:06:17.191Z,0.77
2019-05-13T12:08:50.806Z,1.67
2019-05-13T12:11:21.673Z,1.43
2019-05-13T12:13:52.752Z,1.30
2019-05-13T12:16:22.986Z,1.23
2019-05-13T12:18:53.155Z,0.67
2019-05-13T12:21:23.278Z,1.40
2019-05-13T12:23:54.294Z,2.20
2019-05-13T12:26:24.633Z,1.53
2019-05-13T12:28:54.634Z,0.97
2019-05-13T12:31:24.639Z,0.60
2019-05-13T12:33:54.686Z,0.90
2019-05-13T12:36:25.732Z,1.83
2019-05-13T12:38:55.825Z,2.07
2019-05-13T12:41:25.880Z,1.63
2019-05-13T12:43:55.866Z,1.57
2019-05-13T12:46:25.893Z,0.70
2019-05-13T12:48:55.977Z,1.30
2019-05-13T12:51:25.963Z,1.70
2019-05-13T12:53:55.977Z,0.90
2019-05-13T12:56:26.041Z,1.23
2019-05-13T12:58:56.057Z,1.20
2019-05-13T13:01:26.187Z,2.03
2019-05-13T13:03:56.242Z,1.17
2019-05-13T13:06:33.207Z,1.33
2019-05-13T13:08:58.301Z,0.97
2019-05-13T13:11:32.296Z,0.80
2019-05-13T13:14:05.731Z,1.00
2019-05-13T13:16:35.595Z,0.90
2019-05-13T13:19:06.415Z,1.43
2019-05-13T13:21:37.886Z,1.20
2019-05-13T13:24:08.045Z,1.47
2019-05-13T13:26:42.437Z,0.50
2019-05-13T13:29:10.861Z,0.70
2019-05-13T13:31:43.271Z,1.37
2019-05-13T13:34:18.026Z,0.50
2019-05-13T13:36:46.345Z,0.70
2019-05-13T13:39:16.707Z,1.23
2019-05-13T13:41:46.704Z,1.27
2019-05-13T13:44:16.996Z,1.23
2019-05-13T13:46:49.883Z,0.50
2019-05-13T13:49:23.045Z,1.33
2019-05-13T13:51:51.799Z,0.80
2019-05-13T13:54:22.537Z,12.67
2019-05-13T13:56:55.981Z,0.60
2019-05-13T13:59:25.193Z,0.50
2019-05-13T14:01:56.359Z,2.10
2019-05-13T14:04:26.435Z,1.07
2019-05-13T14:09:32.627Z,0.60
2019-05-13T14:12:02.650Z,0.60
2019-05-13T14:14:32.639Z,0.80
2019-05-13T14:17:02.641Z,1.07
2019-05-13T14:19:32.712Z,0.50
2019-05-13T14:22:02.760Z,1.93
2019-05-13T14:24:33.200Z,1.00
2019-05-13T14:27:03.348Z,1.00
2019-05-13T14:29:41.021Z,0.73
2019-05-13T14:32:11.400Z,1.33
2019-05-13T14:34:47.169Z,0.83
2019-05-13T14:37:17.188Z,0.50
2019-05-13T14:39:47.273Z,1.43
2019-05-13T14:42:17.412Z,1.73
2019-05-13T14:44:47.404Z,1.07
2019-05-13T14:47:17.482Z,1.77
2019-05-13T14:49:47.468Z,1.23
2019-05-13T14:52:17.506Z,0.90
2019-05-13T14:54:47.577Z,2.07
2019-05-13T14:57:17.648Z,1.90
2019-05-13T14:59:47.710Z,1.07
2019-05-13T15:02:17.704Z,1.33
2019-05-13T15:04:47.721Z,2.40
2019-05-13T15:07:17.845Z,3.67
2019-05-13T15:09:47.845Z,9.70
2019-05-13T15:12:17.842Z,9.60
2019-05-13T15:14:47.837Z,2.50
2019-05-13T15:17:17.906Z,10.40
2019-05-13T15:19:48.199Z,4.80
2019-05-13T15:22:18.351Z,4.87
2019-05-13T15:24:48.341Z,2.63
2019-05-13T15:27:18.407Z,2.97
2019-05-13T15:29:48.406Z,1.00
2019-05-13T15:32:18.403Z,1.63
2019-05-13T15:34:48.579Z,0.77
2019-05-13T15:37:18.696Z,0.77
2019-05-13T15:39:48.745Z,1.00
2019-05-13T15:42:20.816Z,1.90
2019-05-13T15:44:52.550Z,2.30
2019-05-13T15:47:24.149Z,1.57
2019-05-13T15:49:54.061Z,0.93
2019-05-13T15:52:24.066Z,0.90
2019-05-13T15:54:54.115Z,1.93
2019-05-13T15:57:24.121Z,3.03
2019-05-13T15:59:54.124Z,1.70
2019-05-13T16:02:24.150Z,0.90
2019-05-13T16:05:01.004Z,2.10
2019-05-13T16:07:25.912Z,1.77
2019-05-13T16:09:55.951Z,1.73
2019-05-13T16:12:25.952Z,0.87
2019-05-13T16:14:56.162Z,1.30
2019-05-13T16:17:40.925Z,1.70
2019-05-13T16:19:57.963Z,0.90
2019-05-13T16:22:27.949Z,0.97
2019-05-13T16:24:57.986Z,2.00
2019-05-13T16:27:28.252Z,0.80
2019-05-13T16:29:58.262Z,1.53
2019-05-13T16:32:28.275Z,2.07
2019-05-13T16:34:58.300Z,1.80
2019-05-13T16:37:28.319Z,1.63
2019-05-13T16:39:58.317Z,0.77
2019-05-13T16:42:28.506Z,0.90
2019-05-13T16:44:58.617Z,2.27
2019-05-13T16:47:28.628Z,0.70
2019-05-13T16:49:58.712Z,1.47
2019-05-13T16:52:28.714Z,1.70
2019-05-13T16:54:58.746Z,0.97
2019-05-13T16:57:28.764Z,1.00
2019-05-13T16:59:58.782Z,1.57
2019-05-13T17:02:28.763Z,1.43
2019-05-13T17:04:58.770Z,0.90
2019-05-13T17:07:28.844Z,7.20
2019-05-13T17:10:01.111Z,4.73
2019-05-13T17:12:31.710Z,1.40
2019-05-13T17:15:01.852Z,0.63
2019-05-13T17:17:31.980Z,0.90
2019-05-13T17:20:02.527Z,0.70
2019-05-13T17:22:32.704Z,4.33
2019-05-13T17:25:02.757Z,3.40
2019-05-13T17:27:32.766Z,1.80
2019-05-13T17:30:02.764Z,1.13
2019-05-13T17:32:32.850Z,2.20
2019-05-13T17:35:03.005Z,7.63
2019-05-13T17:37:33.168Z,7.17
2019-05-13T17:40:04.128Z,6.43
2019-05-13T17:42:34.199Z,5.73
2019-05-13T17:45:05.896Z,2.93
2019-05-13T17:47:35.894Z,2.60
2019-05-13T17:50:08.590Z,2.13
2019-05-13T17:52:38.587Z,1.93
2019-05-13T17:55:08.978Z,2.50
2019-05-13T17:57:41.252Z,2.60
2019-05-13T18:00:12.068Z,2.90
2019-05-13T18:02:43.813Z,6.77
2019-05-13T18:05:13.953Z,18.47
2019-05-13T18:07:44.038Z,21.87
2019-05-13T18:10:14.659Z,16.97
2019-05-13T18:12:44.779Z,4.27
2019-05-13T18:15:14.972Z,1.50
2019-05-13T18:17:44.962Z,3.20
2019-05-13T18:20:15.246Z,4.20
2019-05-13T18:22:45.249Z,2.03
2019-05-13T18:25:15.589Z,2.80
2019-05-13T18:27:45.638Z,2.30
2019-05-13T18:30:15.767Z,1.47
2019-05-13T18:32:45.821Z,1.50
2019-05-13T18:35:15.963Z,3.57
2019-05-13T18:37:45.969Z,1.87
2019-05-13T18:40:16.859Z,3.67
2019-05-13T18:42:46.860Z,2.30
2019-05-13T18:45:17.076Z,3.03
2019-05-13T18:47:47.071Z,1.93
2019-05-13T18:50:17.248Z,1.30
2019-05-13T18:52:47.251Z,1.33
2019-05-13T18:55:17.319Z,4.33
2019-05-13T18:57:47.319Z,1.73
2019-05-13T19:00:17.818Z,4.70
2019-05-13T19:02:47.794Z,2.23
2019-05-13T19:05:17.897Z,2.83
2019-05-13T19:07:47.904Z,2.63
2019-05-13T19:10:18.044Z,3.30
2019-05-13T19:12:48.038Z,4.27
2019-05-13T19:15:18.260Z,12.27
2019-05-13T19:17:48.273Z,13.63
2019-05-13T19:20:18.616Z,12.00
2019-05-13T19:22:48.615Z,8.40
2019-05-13T19:25:18.781Z,11.17
2019-05-13T19:27:48.764Z,10.80
2019-05-13T19:30:21.283Z,6.30
2019-05-13T19:32:52.311Z,4.70
2019-05-13T19:35:22.381Z,2.70
2019-05-13T19:37:52.428Z,3.50
2019-05-13T19:40:22.462Z,2.53
2019-05-13T19:42:52.529Z,3.57
2019-05-13T19:45:22.631Z,4.10
2019-05-13T19:47:52.704Z,2.63
2019-05-13T19:50:22.875Z,4.80
2019-05-13T19:52:52.935Z,2.83
2019-05-13T19:55:23.035Z,2.20
2019-05-13T19:57:53.034Z,2.57
2019-05-13T20:00:23.187Z,2.10
2019-05-13T20:02:53.178Z,3.47
2019-05-13T20:05:23.308Z,2.17
2019-05-13T20:07:53.638Z,2.83
2019-05-13T20:10:23.687Z,2.30
2019-05-13T20:12:53.688Z,5.93
2019-05-13T20:15:23.713Z,3.93
2019-05-13T20:17:53.699Z,1.50
2019-05-13T20:20:23.786Z,1.40
2019-05-13T20:22:53.807Z,2.30
2019-05-13T20:25:23.815Z,5.97
2019-05-13T20:27:53.862Z,3.20
2019-05-13T21:01:07.303Z,2.13
2019-05-13T21:03:37.386Z,1.20
2019-05-13T21:06:07.461Z,3.17
2019-05-13T21:08:37.533Z,1.50
2019-05-13T21:11:07.695Z,2.07
2019-05-13T21:13:37.667Z,1.47
2019-05-13T21:16:07.666Z,1.93
2019-05-13T21:18:37.693Z,3.07
2019-05-13T21:21:07.743Z,1.87
2019-05-13T21:23:37.713Z,2.40
2019-05-13T21:26:07.780Z,2.83
2019-05-13T21:28:41.708Z,2.60
2019-05-13T21:31:11.472Z,2.53
2019-05-13T21:33:41.567Z,3.10
2019-05-13T21:36:12.368Z,2.60
2019-05-13T21:38:42.411Z,2.83
2019-05-13T21:41:12.397Z,3.70
2019-05-13T21:43:42.399Z,2.37
2019-05-13T21:46:12.390Z,3.67
2019-05-13T21:48:42.369Z,6.50
2019-05-13T21:51:13.522Z,6.83
2019-05-13T21:53:43.653Z,6.50
2019-05-13T21:56:13.652Z,7.33
2019-05-13T21:58:43.702Z,6.70
2019-05-13T22:01:13.996Z,4.83
2019-05-13T22:03:44.059Z,3.10
2019-05-13T22:06:14.233Z,4.83
2019-05-13T22:08:44.281Z,3.03
2019-05-13T22:11:14.391Z,1.70
2019-05-13T22:13:44.388Z,1.87
2019-05-13T22:16:14.483Z,3.87
2019-05-13T22:18:44.465Z,2.37
2019-05-13T22:21:14.522Z,2.63
2019-05-13T22:23:44.558Z,3.63
2019-05-13T22:26:14.567Z,3.03
2019-05-13T22:28:44.552Z,3.63
2019-05-13T22:31:14.623Z,2.30
2019-05-13T22:33:45.306Z,1.90
2019-05-13T22:36:15.381Z,2.60
2019-05-13T22:38:45.419Z,2.40
2019-05-13T22:41:15.420Z,2.07
2019-05-13T22:43:55.685Z,2.60
2019-05-13T22:46:17.129Z,1.27
2019-05-13T22:48:47.124Z,3.10
2019-05-13T22:51:17.090Z,1.70
2019-05-13T22:53:47.223Z,2.17
2019-05-13T22:56:17.217Z,4.70
2019-05-13T22:58:47.233Z,2.47
2019-05-13T23:01:17.220Z,2.23
2019-05-13T23:03:47.278Z,2.40
2019-05-13T23:06:17.270Z,2.07
2019-05-13T23:08:47.273Z,1.50
2019-05-13T23:11:17.284Z,2.13
2019-05-13T23:13:47.266Z,2.73
2019-05-13T23:16:17.300Z,2.23
2019-05-13T23:18:47.297Z,2.57
2019-05-13T23:21:17.320Z,2.87
2019-05-13T23:23:47.292Z,1.53
2019-05-13T23:26:17.323Z,2.17
2019-05-13T23:28:47.308Z,2.33
2019-05-13T23:31:17.302Z,2.87
2019-05-13T23:33:47.324Z,3.17
2019-05-13T23:36:17.333Z,3.07
2019-05-13T23:38:47.447Z,2.53
2019-05-13T23:41:17.510Z,5.80
2019-05-13T23:43:47.493Z,1.60
2019-05-13T23:46:17.604Z,3.37
2019-05-13T23:48:47.585Z,2.33
2019-05-13T23:51:17.618Z,2.37
2019-05-13T23:53:47.681Z,2.07
2019-05-13T23:56:17.696Z,1.67
2019-05-13T23:58:47.692Z,2.87
